createdAt,value
2019-02-02T00:00:54.472Z,12.10
2019-02-02T00:03:24.483Z,13.37
2019-02-02T00:05:54.234Z,12.40
2019-02-02T00:08:23.939Z,13.50
2019-02-02T00:10:53.618Z,14.10
2019-02-02T00:13:23.386Z,13.53
2019-02-02T00:15:53.027Z,13.10
2019-02-02T00:18:22.962Z,13.40
2019-02-02T00:20:52.855Z,13.80
2019-02-02T00:23:22.589Z,12.40
2019-02-02T00:25:52.302Z,12.57
2019-02-02T00:28:21.927Z,12.20
2019-02-02T00:30:51.502Z,11.70
2019-02-02T00:33:21.177Z,12.40
2019-02-02T00:35:50.984Z,13.10
2019-02-02T00:38:20.733Z,14.20
2019-02-02T00:40:50.303Z,11.43
2019-02-02T00:43:19.858Z,12.20
2019-02-02T00:45:49.703Z,13.57
2019-02-02T00:48:19.515Z,14.37
2019-02-02T00:50:49.154Z,13.93
2019-02-02T00:53:18.758Z,11.67
2019-02-02T00:55:48.296Z,12.77
2019-02-02T00:58:17.946Z,14.50
2019-02-02T01:00:47.658Z,14.53
2019-02-02T01:03:17.403Z,13.70
2019-02-02T01:05:47.043Z,13.27
2019-02-02T01:08:16.751Z,15.53
2019-02-02T01:10:46.440Z,15.00
2019-02-02T01:13:15.935Z,14.17
2019-02-02T01:15:45.683Z,12.77
2019-02-02T01:18:15.446Z,14.33
2019-02-02T01:20:45.143Z,16.97
2019-02-02T01:23:14.813Z,14.20
2019-02-02T01:25:44.576Z,14.00
2019-02-02T01:28:14.468Z,14.80
2019-02-02T01:30:44.026Z,13.60
2019-02-02T01:33:13.778Z,14.73
2019-02-02T01:35:43.446Z,14.60
2019-02-02T01:38:13.107Z,14.07
2019-02-02T01:40:42.753Z,14.03
2019-02-02T01:43:12.403Z,14.27
2019-02-02T01:45:42.137Z,13.90
2019-02-02T01:48:11.705Z,13.90
2019-02-02T01:50:41.415Z,15.40
2019-02-02T01:53:11.050Z,14.63
2019-02-02T01:55:40.710Z,15.00
2019-02-02T01:58:16.884Z,15.70
2019-02-02T02:00:41.912Z,16.80
2019-02-02T02:03:11.638Z,16.50
2019-02-02T02:05:42.945Z,14.20
2019-02-02T02:08:14.199Z,15.93
2019-02-02T02:10:43.946Z,14.30
2019-02-02T02:13:13.753Z,15.23
2019-02-02T02:15:44.915Z,14.27
2019-02-02T02:18:14.496Z,13.07
2019-02-02T02:20:44.077Z,14.20
2019-02-02T02:23:13.709Z,14.73
2019-02-02T02:25:43.249Z,14.50
2019-02-02T02:28:12.946Z,16.53
2019-02-02T02:30:42.590Z,14.40
2019-02-02T02:33:12.190Z,13.93
2019-02-02T02:35:41.902Z,16.67
2019-02-02T02:38:11.535Z,15.80
2019-02-02T02:40:41.203Z,14.30
2019-02-02T02:43:10.950Z,15.03
2019-02-02T02:45:40.763Z,14.57
2019-02-02T02:48:10.526Z,15.60
2019-02-02T02:50:40.038Z,14.70
2019-02-02T02:53:09.624Z,14.30
2019-02-02T02:55:39.267Z,15.43
2019-02-02T02:58:08.932Z,14.00
2019-02-02T03:00:38.574Z,15.80
2019-02-02T03:03:08.334Z,14.03
2019-02-02T03:05:38.158Z,16.40
2019-02-02T03:08:08.011Z,17.00
2019-02-02T03:10:37.618Z,17.03
2019-02-02T03:13:07.223Z,16.70
2019-02-02T03:15:36.818Z,16.50
2019-02-02T03:18:06.638Z,15.20
2019-02-02T03:20:36.265Z,15.87
2019-02-02T03:23:05.947Z,16.63
2019-02-02T03:25:35.809Z,17.90
2019-02-02T03:28:05.473Z,15.53
2019-02-02T03:30:35.131Z,15.93
2019-02-02T03:33:04.783Z,16.30
2019-02-02T03:35:34.492Z,15.93
2019-02-02T03:38:04.468Z,16.37
2019-02-02T03:40:34.266Z,17.57
2019-02-02T03:43:04.033Z,18.97
2019-02-02T03:45:33.718Z,18.20
2019-02-02T03:48:03.407Z,16.70
2019-02-02T03:50:33.149Z,16.43
2019-02-02T03:53:02.903Z,17.43
2019-02-02T03:55:32.455Z,17.40
2019-02-02T03:58:02.101Z,18.37
2019-02-02T04:00:31.758Z,16.73
2019-02-02T04:03:01.327Z,16.67
2019-02-02T04:05:30.919Z,15.83
2019-02-02T04:08:00.570Z,17.80
2019-02-02T04:10:30.306Z,17.33
2019-02-02T04:12:59.832Z,15.83
2019-02-02T04:15:29.772Z,16.23
2019-02-02T04:17:59.522Z,16.10
2019-02-02T04:20:29.372Z,18.00
2019-02-02T04:22:59.111Z,17.27
2019-02-02T04:25:28.780Z,17.43
2019-02-02T04:27:58.439Z,18.60
2019-02-02T04:30:28.343Z,14.73
2019-02-02T04:32:58.397Z,17.50
2019-02-02T04:35:29.501Z,17.80
2019-02-02T04:37:59.032Z,19.60
2019-02-02T04:40:28.547Z,17.17
2019-02-02T04:42:58.410Z,15.33
2019-02-02T04:45:27.981Z,17.30
2019-02-02T04:47:57.698Z,16.97
2019-02-02T04:50:27.422Z,18.60
2019-02-02T04:52:57.050Z,18.93
2019-02-02T04:55:26.629Z,17.20
2019-02-02T04:57:56.288Z,17.33
2019-02-02T05:00:27.369Z,18.90
2019-02-02T05:02:57.114Z,17.97
2019-02-02T05:05:26.743Z,16.67
2019-02-02T05:07:56.361Z,17.20
2019-02-02T05:10:25.929Z,19.87
2019-02-02T05:12:55.563Z,18.60
2019-02-02T05:15:25.213Z,19.23
2019-02-02T05:17:54.983Z,19.00
2019-02-02T05:20:24.631Z,18.47
2019-02-02T05:22:54.200Z,18.47
2019-02-02T05:25:24.070Z,18.10
2019-02-02T05:27:53.786Z,20.87
2019-02-02T05:30:26.156Z,26.43
2019-02-02T05:32:55.822Z,26.63
2019-02-02T05:35:25.491Z,23.47
2019-02-02T05:37:55.094Z,19.90
2019-02-02T05:40:24.710Z,18.47
2019-02-02T05:42:54.845Z,18.20
2019-02-02T05:45:24.657Z,17.50
2019-02-02T05:47:54.326Z,15.57
2019-02-02T05:50:24.251Z,16.07
2019-02-02T05:52:54.088Z,19.83
2019-02-02T05:55:24.087Z,18.10
2019-02-02T05:57:53.714Z,17.83
2019-02-02T06:00:30.441Z,18.30
2019-02-02T06:03:00.309Z,18.00
2019-02-02T06:05:30.022Z,18.03
2019-02-02T06:07:59.749Z,18.57
2019-02-02T06:10:29.321Z,18.53
2019-02-02T06:12:59.004Z,19.00
2019-02-02T06:15:29.184Z,19.30
2019-02-02T06:17:58.942Z,19.43
2019-02-02T06:20:28.823Z,19.00
2019-02-02T06:22:58.376Z,21.00
2019-02-02T06:25:28.243Z,21.47
2019-02-02T06:27:57.752Z,21.20
2019-02-02T06:30:27.420Z,20.70
2019-02-02T06:32:57.106Z,19.50
2019-02-02T06:35:26.998Z,17.13
2019-02-02T06:37:56.519Z,19.80
2019-02-02T06:40:26.218Z,20.03
2019-02-02T06:42:55.930Z,18.40
2019-02-02T06:45:30.846Z,19.60
2019-02-02T06:48:00.700Z,18.50
2019-02-02T06:50:30.483Z,19.23
2019-02-02T06:53:00.914Z,22.63
2019-02-02T06:55:30.568Z,21.43
2019-02-02T06:58:00.332Z,22.40
2019-02-02T07:00:30.848Z,21.17
2019-02-02T07:03:00.566Z,21.53
2019-02-02T07:05:30.130Z,22.27
2019-02-02T07:07:59.811Z,21.80
2019-02-02T07:10:29.897Z,19.17
2019-02-02T07:12:59.886Z,19.37
2019-02-02T07:15:30.769Z,21.03
2019-02-02T07:18:00.395Z,21.40
2019-02-02T07:20:30.580Z,23.93
2019-02-02T07:23:00.472Z,20.77
2019-02-02T07:25:30.194Z,19.70
2019-02-02T07:27:59.871Z,19.70
2019-02-02T07:30:29.925Z,22.50
2019-02-02T07:32:59.684Z,21.67
2019-02-02T07:35:29.585Z,22.07
2019-02-02T07:37:59.201Z,20.03
2019-02-02T07:40:28.779Z,22.07
2019-02-02T07:42:58.571Z,21.63
2019-02-02T07:45:30.126Z,20.50
2019-02-02T07:47:59.952Z,20.83
2019-02-02T07:50:29.583Z,21.00
2019-02-02T07:52:59.676Z,21.37
2019-02-02T07:55:29.653Z,22.30
2019-02-02T07:57:59.391Z,20.60
2019-02-02T08:00:40.389Z,24.27
2019-02-02T08:03:02.951Z,21.17
2019-02-02T08:05:32.671Z,21.80
2019-02-02T08:08:02.378Z,20.70
2019-02-02T08:10:32.094Z,20.63
2019-02-02T08:13:03.996Z,19.67
2019-02-02T08:15:34.272Z,21.07
2019-02-02T08:18:04.747Z,22.63
2019-02-02T08:20:34.707Z,21.03
2019-02-02T08:23:04.638Z,21.80
2019-02-02T08:25:34.396Z,22.30
2019-02-02T08:28:04.250Z,22.77
2019-02-02T08:30:35.793Z,19.47
2019-02-02T08:33:06.295Z,19.70
2019-02-02T08:35:35.900Z,23.60
2019-02-02T08:38:05.880Z,23.00
2019-02-02T08:40:35.706Z,21.10
2019-02-02T08:43:05.551Z,22.80
2019-02-02T08:45:35.249Z,23.47
2019-02-02T08:48:04.967Z,27.87
2019-02-02T08:50:36.414Z,24.10
2019-02-02T08:53:06.294Z,23.80
2019-02-02T08:55:36.028Z,22.90
2019-02-02T08:58:06.062Z,22.60
2019-02-02T09:00:36.250Z,21.13
2019-02-02T09:03:06.304Z,25.67
2019-02-02T09:05:40.127Z,25.43
2019-02-02T09:08:10.039Z,23.93
2019-02-02T09:10:40.260Z,23.43
2019-02-02T09:13:10.133Z,24.20
2019-02-02T09:15:39.797Z,26.33
2019-02-02T09:18:09.495Z,23.37
2019-02-02T09:20:39.385Z,22.33
2019-02-02T09:23:09.223Z,24.60
2019-02-02T09:25:38.838Z,22.97
2019-02-02T09:28:08.599Z,23.47
2019-02-02T09:30:38.332Z,24.23
2019-02-02T09:33:08.008Z,23.03
2019-02-02T09:35:37.856Z,22.90
2019-02-02T09:38:12.082Z,22.27
2019-02-02T09:40:41.242Z,21.20
2019-02-02T09:43:11.156Z,22.40
2019-02-02T09:45:41.154Z,22.93
2019-02-02T09:48:11.002Z,25.90
2019-02-02T09:50:40.812Z,22.70
2019-02-02T09:53:10.675Z,20.37
2019-02-02T09:55:40.272Z,24.90
2019-02-02T09:58:10.395Z,24.60
2019-02-02T10:00:40.248Z,24.47
2019-02-02T10:03:10.053Z,24.67
2019-02-02T10:05:39.914Z,25.23
2019-02-02T10:08:09.705Z,23.67
2019-02-02T10:10:39.487Z,21.93
2019-02-02T10:13:09.410Z,25.00
2019-02-02T10:15:39.409Z,26.60
2019-02-02T10:18:09.215Z,23.33
2019-02-02T10:20:41.268Z,23.23
2019-02-02T10:23:10.848Z,23.83
2019-02-02T10:25:40.480Z,23.80
2019-02-02T10:28:10.208Z,23.83
2019-02-02T10:30:41.526Z,23.37
2019-02-02T10:33:11.488Z,23.17
2019-02-02T10:35:41.398Z,23.00
2019-02-02T10:38:11.212Z,23.70
2019-02-02T10:40:40.974Z,25.33
2019-02-02T10:43:10.941Z,22.93
2019-02-02T10:45:40.545Z,24.60
2019-02-02T10:48:10.655Z,23.67
2019-02-02T10:50:40.470Z,26.97
2019-02-02T10:53:10.507Z,24.20
2019-02-02T10:55:40.355Z,23.97
2019-02-02T10:58:10.578Z,25.40
2019-02-02T11:00:40.835Z,21.77
2019-02-02T11:03:10.505Z,25.67
2019-02-02T11:05:40.418Z,26.77
2019-02-02T11:08:10.120Z,24.40
2019-02-02T11:10:40.029Z,24.50
2019-02-02T11:13:09.878Z,28.13
2019-02-02T11:15:39.763Z,27.87
2019-02-02T11:18:09.475Z,25.60
2019-02-02T11:20:39.329Z,25.43
2019-02-02T11:23:09.116Z,24.87
2019-02-02T11:25:38.913Z,24.30
2019-02-02T11:28:08.812Z,26.27
2019-02-02T11:30:38.631Z,24.30
2019-02-02T11:33:08.334Z,24.90
2019-02-02T11:35:38.010Z,27.90
2019-02-02T11:38:07.740Z,25.00
2019-02-02T11:40:37.566Z,25.50
2019-02-02T11:43:07.480Z,25.33
2019-02-02T11:45:37.237Z,26.63
2019-02-02T11:48:07.042Z,26.30
2019-02-02T11:50:36.975Z,27.53
2019-02-02T11:53:06.734Z,25.80
2019-02-02T11:55:36.917Z,29.40
2019-02-02T11:58:06.914Z,30.80
2019-02-02T12:00:41.364Z,31.33
2019-02-02T12:03:11.234Z,30.60
2019-02-02T12:05:41.860Z,29.90
2019-02-02T12:08:11.760Z,27.97
2019-02-02T12:10:41.495Z,29.43
2019-02-02T12:13:11.572Z,29.10
2019-02-02T12:15:41.384Z,32.50
2019-02-02T12:18:11.992Z,29.50
2019-02-02T12:20:42.293Z,26.97
2019-02-02T12:23:11.978Z,31.23
2019-02-02T12:25:41.615Z,29.07
2019-02-02T12:28:11.253Z,31.13
2019-02-02T12:30:41.006Z,30.03
2019-02-02T12:33:10.651Z,28.23
2019-02-02T12:35:40.469Z,31.03
2019-02-02T12:38:10.672Z,30.63
2019-02-02T12:40:40.460Z,31.60
2019-02-02T12:43:11.692Z,34.27
2019-02-02T12:45:44.662Z,33.87
2019-02-02T12:48:14.733Z,31.50
2019-02-02T12:50:44.549Z,29.90
2019-02-02T12:53:14.653Z,31.23
2019-02-02T12:55:44.539Z,31.77
2019-02-02T12:58:14.623Z,29.17
2019-02-02T13:00:44.650Z,34.50
2019-02-02T13:03:14.363Z,30.43
2019-02-02T13:05:44.119Z,30.73
2019-02-02T13:08:13.887Z,31.43
2019-02-02T13:10:43.606Z,32.07
2019-02-02T13:13:13.885Z,34.30
2019-02-02T13:15:43.674Z,33.40
2019-02-02T13:18:13.344Z,32.40
2019-02-02T13:20:43.146Z,34.27
2019-02-02T13:23:12.840Z,31.23
2019-02-02T13:25:42.620Z,33.17
2019-02-02T13:28:12.424Z,32.87
2019-02-02T13:30:42.286Z,29.87
2019-02-02T13:33:12.000Z,31.80
2019-02-02T13:35:41.843Z,32.70
2019-02-02T13:38:11.486Z,28.70
2019-02-02T13:40:41.219Z,30.80
2019-02-02T13:43:11.111Z,30.33
2019-02-02T13:45:40.719Z,31.10
2019-02-02T13:48:10.836Z,30.67
2019-02-02T13:50:40.841Z,31.17
2019-02-02T13:53:10.828Z,31.70
2019-02-02T13:55:40.446Z,31.50
2019-02-02T13:58:10.298Z,31.00
2019-02-02T14:00:39.982Z,32.80
2019-02-02T14:03:09.706Z,31.33
2019-02-02T14:05:39.762Z,30.00
2019-02-02T14:08:09.470Z,28.97
2019-02-02T14:10:39.474Z,29.17
2019-02-02T14:13:09.151Z,30.30
2019-02-02T14:15:39.430Z,28.27
2019-02-02T14:18:09.539Z,32.60
2019-02-02T14:20:39.489Z,31.30
2019-02-02T14:23:09.243Z,29.80
2019-02-02T14:25:39.055Z,28.60
2019-02-02T14:28:09.263Z,32.80
2019-02-02T14:30:39.335Z,33.53
2019-02-02T14:33:14.134Z,30.30
2019-02-02T14:35:40.581Z,31.33
2019-02-02T14:38:10.354Z,29.87
2019-02-02T14:40:40.258Z,30.57
2019-02-02T14:43:10.115Z,29.47
2019-02-02T14:45:39.770Z,32.00
2019-02-02T14:48:09.580Z,32.57
2019-02-02T14:50:39.649Z,31.60
2019-02-02T14:53:09.786Z,33.73
2019-02-02T14:55:40.017Z,30.90
2019-02-02T14:58:09.854Z,33.37
2019-02-02T15:00:39.607Z,34.50
2019-02-02T15:03:09.519Z,32.13
2019-02-02T15:05:43.155Z,34.17
2019-02-02T15:08:11.194Z,33.90
2019-02-02T15:10:41.146Z,34.43
2019-02-02T15:13:10.795Z,35.47
2019-02-02T15:15:40.621Z,31.47
2019-02-02T15:18:10.877Z,31.93
2019-02-02T15:20:40.841Z,33.07
2019-02-02T15:23:11.053Z,32.53
2019-02-02T15:25:41.176Z,33.90
2019-02-02T15:28:11.041Z,34.60
2019-02-02T15:30:40.908Z,32.70
2019-02-02T15:33:10.796Z,35.63
2019-02-02T15:35:40.755Z,35.23
2019-02-02T15:38:10.791Z,33.67
2019-02-02T15:40:41.051Z,33.00
2019-02-02T15:43:10.687Z,34.50
2019-02-02T15:45:40.480Z,35.97
2019-02-02T15:48:10.206Z,32.87
2019-02-02T15:50:40.211Z,36.57
2019-02-02T15:53:10.201Z,34.20
2019-02-02T15:55:40.002Z,34.53
2019-02-02T15:58:09.638Z,30.50
2019-02-02T16:00:39.430Z,36.93
2019-02-02T16:03:09.332Z,33.73
2019-02-02T16:05:39.172Z,35.20
2019-02-02T16:08:11.002Z,33.20
2019-02-02T16:10:40.787Z,34.80
2019-02-02T16:13:10.467Z,31.77
2019-02-02T16:15:40.059Z,31.03
2019-02-02T16:18:09.827Z,32.80
2019-02-02T16:20:42.269Z,32.73
2019-02-02T16:23:12.320Z,33.67
2019-02-02T16:25:42.549Z,35.80
2019-02-02T16:28:12.385Z,37.63
2019-02-02T16:30:42.334Z,36.77
2019-02-02T16:33:12.246Z,33.70
2019-02-02T16:35:42.359Z,37.27
2019-02-02T16:38:12.273Z,28.73
2019-02-02T16:40:41.932Z,32.47
2019-02-02T16:43:11.930Z,33.33
2019-02-02T16:45:41.657Z,32.23
2019-02-02T16:48:11.727Z,31.40
2019-02-02T16:50:41.574Z,33.77
2019-02-02T16:53:15.637Z,41.20
2019-02-02T16:55:45.969Z,35.30
2019-02-02T16:58:16.711Z,34.60
2019-02-02T17:00:46.570Z,32.93
2019-02-02T17:03:16.618Z,40.13
2019-02-02T17:05:46.301Z,38.03
2019-02-02T17:08:15.985Z,35.90
2019-02-02T17:10:45.798Z,34.23
2019-02-02T17:13:15.560Z,34.30
2019-02-02T17:15:45.191Z,35.07
2019-02-02T17:18:15.091Z,33.73
2019-02-02T17:20:45.051Z,32.50
2019-02-02T17:23:14.699Z,32.20
2019-02-02T17:25:44.405Z,35.33
2019-02-02T17:28:14.455Z,35.87
2019-02-02T17:30:44.313Z,36.10
2019-02-02T17:33:14.582Z,33.47
2019-02-02T17:35:44.600Z,38.27
2019-02-02T17:38:14.390Z,36.60
2019-02-02T17:40:44.198Z,36.07
2019-02-02T17:43:14.234Z,34.57
2019-02-02T17:45:44.060Z,39.50
2019-02-02T17:48:13.866Z,39.47
2019-02-02T17:50:43.978Z,40.03
2019-02-02T17:53:13.799Z,37.10
2019-02-02T17:55:43.430Z,37.10
2019-02-02T17:58:13.630Z,37.07
2019-02-02T18:00:44.964Z,38.70
2019-02-02T18:03:14.601Z,37.53
2019-02-02T18:05:44.448Z,39.97
2019-02-02T18:08:14.244Z,41.40
2019-02-02T18:10:44.123Z,35.33
2019-02-02T18:13:13.872Z,34.83
2019-02-02T18:15:43.975Z,37.57
2019-02-02T18:18:13.639Z,36.23
2019-02-02T18:20:43.486Z,38.50
2019-02-02T18:23:13.238Z,35.07
2019-02-02T18:25:42.946Z,36.07
2019-02-02T18:28:12.607Z,31.60
2019-02-02T18:30:42.284Z,34.07
2019-02-02T18:33:11.897Z,33.60
2019-02-02T18:35:41.583Z,35.00
2019-02-02T18:38:11.189Z,34.20
2019-02-02T18:40:40.946Z,34.50
2019-02-02T18:43:12.028Z,32.33
2019-02-02T18:45:41.676Z,31.00
2019-02-02T18:48:11.619Z,40.80
2019-02-02T18:50:41.292Z,37.50
2019-02-02T18:53:11.357Z,36.53
2019-02-02T18:55:49.879Z,39.40
2019-02-02T18:58:19.915Z,35.97
2019-02-02T19:00:49.875Z,39.70
2019-02-02T19:03:19.848Z,35.83
2019-02-02T19:05:49.657Z,34.67
2019-02-02T19:08:19.411Z,34.67
2019-02-02T19:10:49.098Z,36.40
2019-02-02T19:13:23.184Z,37.63
2019-02-02T19:15:52.951Z,37.57
2019-02-02T19:18:23.163Z,39.73
2019-02-02T19:20:53.103Z,41.63
2019-02-02T19:23:25.196Z,40.60
2019-02-02T19:25:54.233Z,42.87
2019-02-02T19:28:26.494Z,42.10
2019-02-02T19:30:58.251Z,38.80
2019-02-02T19:33:28.498Z,41.80
2019-02-02T19:35:58.237Z,40.80
2019-02-02T19:38:28.476Z,39.37
2019-02-02T19:40:58.507Z,40.10
2019-02-02T19:43:28.201Z,41.10
2019-02-02T19:45:58.160Z,41.87
2019-02-02T19:48:27.964Z,42.73
2019-02-02T19:50:57.824Z,46.83
2019-02-02T19:53:28.232Z,53.73
2019-02-02T19:55:58.058Z,47.40
2019-02-02T19:58:27.987Z,42.30
2019-02-02T20:00:57.927Z,45.97
2019-02-02T20:03:30.051Z,45.87
2019-02-02T20:05:59.923Z,43.57
2019-02-02T20:08:29.801Z,43.43
2019-02-02T20:10:59.589Z,40.37
2019-02-02T20:13:29.325Z,42.03
2019-02-02T20:15:59.067Z,40.93
2019-02-02T20:18:28.905Z,44.33
2019-02-02T20:20:58.828Z,44.70
2019-02-02T20:23:28.710Z,39.47
2019-02-02T20:25:58.407Z,42.40
2019-02-02T20:28:28.063Z,42.00
2019-02-02T20:30:57.838Z,43.00
2019-02-02T20:33:27.571Z,39.53
2019-02-02T20:35:57.313Z,41.50
2019-02-02T20:38:26.918Z,45.10
2019-02-02T20:40:57.026Z,41.80
2019-02-02T20:43:27.133Z,45.33
2019-02-02T20:45:56.815Z,40.50
2019-02-02T20:48:26.742Z,40.53
2019-02-02T20:50:56.370Z,40.47
2019-02-02T20:53:26.239Z,39.93
2019-02-02T20:55:56.278Z,37.93
2019-02-02T20:58:25.793Z,42.27
2019-02-02T21:00:55.524Z,37.50
2019-02-02T21:03:25.339Z,41.13
2019-02-02T21:05:55.619Z,36.60
2019-02-02T21:08:25.372Z,39.87
2019-02-02T21:10:55.380Z,39.80
2019-02-02T21:13:25.354Z,40.93
2019-02-02T21:15:55.181Z,37.70
2019-02-02T21:18:25.311Z,37.67
2019-02-02T21:20:55.529Z,38.23
2019-02-02T21:23:25.163Z,41.33
2019-02-02T21:25:54.946Z,38.40
2019-02-02T21:28:25.203Z,39.30
2019-02-02T21:30:54.859Z,40.50
2019-02-02T21:33:24.449Z,39.33
2019-02-02T21:36:03.703Z,35.60
2019-02-02T21:38:27.640Z,39.83
2019-02-02T21:40:57.575Z,40.10
2019-02-02T21:43:27.247Z,39.33
2019-02-02T21:45:57.519Z,36.00
2019-02-02T21:48:27.142Z,35.47
2019-02-02T21:50:56.936Z,34.20
2019-02-02T21:53:26.718Z,32.50
2019-02-02T21:55:56.389Z,33.30
2019-02-02T21:58:26.154Z,37.17
2019-02-02T22:00:55.884Z,32.00
2019-02-02T22:03:25.625Z,31.70
2019-02-02T22:05:55.175Z,34.10
2019-02-02T22:08:25.243Z,36.07
2019-02-02T22:10:54.868Z,35.67
2019-02-02T22:13:24.643Z,31.93
2019-02-02T22:15:54.422Z,33.67
2019-02-02T22:18:24.127Z,30.27
2019-02-02T22:20:53.934Z,31.20
2019-02-02T22:23:23.476Z,34.60
2019-02-02T22:25:53.191Z,32.87
2019-02-02T22:28:22.827Z,31.70
2019-02-02T22:30:52.446Z,33.53
2019-02-02T22:33:22.240Z,37.30
2019-02-02T22:35:52.009Z,33.83
2019-02-02T22:38:21.766Z,30.40
2019-02-02T22:40:51.563Z,31.20
2019-02-02T22:43:21.376Z,32.70
2019-02-02T22:45:51.444Z,33.20
2019-02-02T22:48:21.490Z,33.40
2019-02-02T22:50:51.220Z,30.63
2019-02-02T22:53:21.285Z,32.23
2019-02-02T22:55:51.047Z,29.33
2019-02-02T22:58:20.792Z,32.67
2019-02-02T23:01:02.727Z,35.73
2019-02-02T23:03:47.278Z,27.73
2019-02-02T23:06:38.895Z,30.37
2019-02-02T23:09:28.747Z,32.40
2019-02-02T23:12:22.214Z,28.40
2019-02-02T23:15:00.630Z,34.43
2019-02-02T23:17:30.441Z,31.07
2019-02-02T23:20:00.946Z,31.87
2019-02-02T23:22:30.734Z,28.97
2019-02-02T23:25:00.449Z,30.87
2019-02-02T23:27:30.463Z,31.33
2019-02-02T23:30:00.348Z,32.90
2019-02-02T23:32:30.286Z,34.93
2019-02-02T23:35:00.324Z,29.23
2019-02-02T23:37:30.089Z,30.93
2019-02-02T23:39:59.733Z,32.10
2019-02-02T23:42:29.630Z,34.20
2019-02-02T23:44:59.288Z,30.00
2019-02-02T23:47:29.047Z,32.90
2019-02-02T23:49:58.778Z,30.47
2019-02-02T23:52:28.411Z,31.20
2019-02-02T23:54:58.022Z,33.40
2019-02-02T23:57:27.595Z,35.83
2019-02-02T23:59:57.447Z,33.30
